Monte — V2FS2 — position and weather

sailwx.info

Track history (hours):
 
Tides and Currents Weather Stations Pressure Air Temp Water Temp Dewpoint Dewpoint Depression Visibility Wind Speed Wind Dir Waves Ship Positions

Monte

Last reported at 2014-Oct-15 09:32 UTC. Time now 2014-Oct-22 09:41 UTC.
Position N 54°17' E 011°36'.

Length 104 m; draft 6.2 m.

Type: Cargo ship. MMSI: 305777000.

Date/timePositionNaut miles runAvg speedWind from/ knotsBaromVisibWave heightAir tempDewpointWater temp
2014-Oct-15 09:32N 54°17' E 011°36'10 9.4
2014-Oct-15 08:29N 54°22' E 011°50'85 9.1
2014-Oct-14 23:10N 54°53' E 014°06'6 9.4
2014-Oct-14 22:33N 54°54' E 014°16'10 9.8
2014-Oct-14 21:33N 54°55' E 014°33'1010.0
2014-Oct-14 20:33N 54°55' E 014°50'10 9.9
2014-Oct-14 19:33N 54°57' E 015°07'9 9.5
2014-Oct-14 18:33N 55°00' E 015°23'  
2014-Oct-06 09:33N 55°17' E 018°51'9 8.5
2014-Oct-06 08:32N 55°13' E 018°38'9 8.7
2014-Oct-06 07:27N 55°09' E 018°23'8 9.1
2014-Oct-06 06:33N 55°05' E 018°10'9 9.2
2014-Oct-06 05:33N 55°02' E 017°55'1010.1
2014-Oct-06 04:33N 54°58' E 017°39'1010.0
2014-Oct-06 03:33N 54°54' E 017°23'1010.1
2014-Oct-06 02:33N 54°51' E 017°06'1510.5
2014-Oct-06 01:05N 54°47' E 016°40'610.5
2014-Oct-06 00:32N 54°45' E 016°31'1110.6
2014-Oct-05 23:33N 54°42' E 016°13'1010.6
2014-Oct-05 22:33N 54°39' E 015°56'1010.2
2014-Oct-05 21:33N 54°36' E 015°39'10 9.7
2014-Oct-05 20:31N 54°34' E 015°22'10 9.8
2014-Oct-05 19:33N 54°31' E 015°06'10 9.9
2014-Oct-05 18:32N 54°28' E 014°50'10 9.9
2014-Oct-05 17:32N 54°25' E 014°33'10 9.9
2014-Oct-05 16:33N 54°23' E 014°17'10 9.8
2014-Oct-05 15:33N 54°20' E 014°01'10 9.8
2014-Oct-05 14:33N 54°17' E 013°45'10 9.6
2014-Oct-05 13:33N 54°10' E 013°35'2 1.8
2014-Oct-05 12:33N 54°08' E 013°34'0 0.0
2014-Oct-05 11:33N 54°08' E 013°34'0 0.0
2014-Oct-05 10:33N 54°08' E 013°34'0 0.0
2014-Oct-05 09:33N 54°08' E 013°34'  
Track history (hours):
 
Tides and Currents Weather Stations Pressure Air Temp Water Temp Dewpoint Dewpoint Depression Visibility Wind Speed Wind Dir Waves Ship Positions

Monte

Last reported at 2014-Oct-15 09:32 UTC. Time now 2014-Oct-22 09:41 UTC.
Position N 54°17' E 011°36'.

Length 104 m; draft 6.2 m.

Type: Cargo ship. MMSI: 305777000.

Date/timePositionNaut miles runAvg speedWind from/ knotsBaromVisibWave heightAir tempDewpointWater temp
2014-Oct-15 09:32N 54°17' E 011°36'10 9.4
2014-Oct-15 08:29N 54°22' E 011°50'85 9.1
2014-Oct-14 23:10N 54°53' E 014°06'6 9.4
2014-Oct-14 22:33N 54°54' E 014°16'10 9.8
2014-Oct-14 21:33N 54°55' E 014°33'1010.0
2014-Oct-14 20:33N 54°55' E 014°50'10 9.9
2014-Oct-14 19:33N 54°57' E 015°07'9 9.5
2014-Oct-14 18:33N 55°00' E 015°23'  
2014-Oct-06 09:33N 55°17' E 018°51'9 8.5
2014-Oct-06 08:32N 55°13' E 018°38'9 8.7
2014-Oct-06 07:27N 55°09' E 018°23'8 9.1
2014-Oct-06 06:33N 55°05' E 018°10'9 9.2
2014-Oct-06 05:33N 55°02' E 017°55'1010.1
2014-Oct-06 04:33N 54°58' E 017°39'1010.0
2014-Oct-06 03:33N 54°54' E 017°23'1010.1
2014-Oct-06 02:33N 54°51' E 017°06'1510.5
2014-Oct-06 01:05N 54°47' E 016°40'610.5
2014-Oct-06 00:32N 54°45' E 016°31'1110.6
2014-Oct-05 23:33N 54°42' E 016°13'1010.6
2014-Oct-05 22:33N 54°39' E 015°56'1010.2
2014-Oct-05 21:33N 54°36' E 015°39'10 9.7
2014-Oct-05 20:31N 54°34' E 015°22'10 9.8
2014-Oct-05 19:33N 54°31' E 015°06'10 9.9
2014-Oct-05 18:32N 54°28' E 014°50'10 9.9
2014-Oct-05 17:32N 54°25' E 014°33'10 9.9
2014-Oct-05 16:33N 54°23' E 014°17'10 9.8
2014-Oct-05 15:33N 54°20' E 014°01'10 9.8
2014-Oct-05 14:33N 54°17' E 013°45'10 9.6
2014-Oct-05 13:33N 54°10' E 013°35'2 1.8
2014-Oct-05 12:33N 54°08' E 013°34'0 0.0
2014-Oct-05 11:33N 54°08' E 013°34'0 0.0
2014-Oct-05 10:33N 54°08' E 013°34'0 0.0
2014-Oct-05 09:33N 54°08' E 013°34'  

Dump ship's entire track history